sensor_id;sensor_type;location;lat;lon;timestamp;temperature;humidity
3406;DHT22;10008;48.682;9.016;2023-08-01T00:01:51;17.20;99.90
3406;DHT22;10008;48.682;9.016;2023-08-01T00:04:17;17.20;99.90
3406;DHT22;10008;48.682;9.016;2023-08-01T00:06:43;17.20;99.90
3406;DHT22;10008;48.682;9.016;2023-08-01T00:09:09;17.30;99.90
3406;DHT22;10008;48.682;9.016;2023-08-01T00:11:34;17.30;99.90
3406;DHT22;10008;48.682;9.016;2023-08-01T00:14:00;17.30;99.90
3406;DHT22;10008;48.682;9.016;2023-08-01T00:16:27;17.30;99.90
3406;DHT22;10008;48.682;9.016;2023-08-01T00:18:52;17.30;99.90
3406;DHT22;10008;48.682;9.016;2023-08-01T00:21:18;17.30;99.90
3406;DHT22;10008;48.682;9.016;2023-08-01T00:23:44;17.40;99.90
3406;DHT22;10008;48.682;9.016;2023-08-01T00:26:09;17.30;99.90
3406;DHT22;10008;48.682;9.016;2023-08-01T00:28:35;17.30;99.90
3406;DHT22;10008;48.682;9.016;2023-08-01T00:31:02;17.30;99.90
3406;DHT22;10008;48.682;9.016;2023-08-01T00:33:28;17.30;99.90
3406;DHT22;10008;48.682;9.016;2023-08-01T00:35:54;17.30;99.90
3406;DHT22;10008;48.682;9.016;2023-08-01T00:38:20;17.30;99.90
3406;DHT22;10008;48.682;9.016;2023-08-01T00:40:45;17.30;99.90
3406;DHT22;10008;48.682;9.016;2023-08-01T00:43:12;17.30;99.90
3406;DHT22;10008;48.682;9.016;2023-08-01T00:45:38;17.40;99.90
3406;DHT22;10008;48.682;9.016;2023-08-01T00:48:04;17.30;99.90
3406;DHT22;10008;48.682;9.016;2023-08-01T00:50:29;17.30;99.90
3406;DHT22;10008;48.682;9.016;2023-08-01T00:52:55;17.20;99.90
3406;DHT22;10008;48.682;9.016;2023-08-01T00:55:22;17.20;99.90
3406;DHT22;10008;48.682;9.016;2023-08-01T00:57:48;17.30;99.90
3406;DHT22;10008;48.682;9.016;2023-08-01T01:00:14;17.30;99.90
3406;DHT22;10008;48.682;9.016;2023-08-01T01:02:40;17.40;99.90
3406;DHT22;10008;48.682;9.016;2023-08-01T01:05:06;17.40;99.90
3406;DHT22;10008;48.682;9.016;2023-08-01T01:07:33;17.40;99.90
3406;DHT22;10008;48.682;9.016;2023-08-01T01:09:59;17.40;99.90
3406;DHT22;10008;48.682;9.016;2023-08-01T01:12:25;17.40;99.90
3406;DHT22;10008;48.682;9.016;2023-08-01T01:14:51;17.40;99.90
3406;DHT22;10008;48.682;9.016;2023-08-01T01:17:17;17.40;99.90
3406;DHT22;10008;48.682;9.016;2023-08-01T01:19:43;17.40;99.90
3406;DHT22;10008;48.682;9.016;2023-08-01T01:22:10;17.40;99.90
3406;DHT22;10008;48.682;9.016;2023-08-01T01:24:37;17.40;99.90
3406;DHT22;10008;48.682;9.016;2023-08-01T01:27:04;17.20;99.90
3406;DHT22;10008;48.682;9.016;2023-08-01T01:29:31;17.00;99.90
3406;DHT22;10008;48.682;9.016;2023-08-01T01:31:59;16.90;99.90
3406;DHT22;10008;48.682;9.016;2023-08-01T01:34:27;16.80;99.90
3406;DHT22;10008;48.682;9.016;2023-08-01T01:36:53;16.70;99.90
3406;DHT22;10008;48.682;9.016;2023-08-01T01:39:18;16.70;99.90
3406;DHT22;10008;48.682;9.016;2023-08-01T01:41:44;16.60;99.90
3406;DHT22;10008;48.682;9.016;2023-08-01T01:44:10;16.50;99.90
3406;DHT22;10008;48.682;9.016;2023-08-01T01:46:35;16.40;99.90
3406;DHT22;10008;48.682;9.016;2023-08-01T01:49:01;16.40;99.90
3406;DHT22;10008;48.682;9.016;2023-08-01T01:51:28;16.30;99.90
3406;DHT22;10008;48.682;9.016;2023-08-01T01:53:54;16.30;99.90
3406;DHT22;10008;48.682;9.016;2023-08-01T01:56:22;16.30;99.90
3406;DHT22;10008;48.682;9.016;2023-08-01T01:58:47;16.20;99.90
3406;DHT22;10008;48.682;9.016;2023-08-01T02:01:13;16.20;99.90
3406;DHT22;10008;48.682;9.016;2023-08-01T02:03:39;16.20;99.90
3406;DHT22;10008;48.682;9.016;2023-08-01T02:06:05;16.20;99.90
3406;DHT22;10008;48.682;9.016;2023-08-01T02:08:31;16.20;99.90
3406;DHT22;10008;48.682;9.016;2023-08-01T02:10:58;16.20;99.90
3406;DHT22;10008;48.682;9.016;2023-08-01T02:13:25;16.20;99.90
3406;DHT22;10008;48.682;9.016;2023-08-01T02:15:51;16.20;99.90
3406;DHT22;10008;48.682;9.016;2023-08-01T02:18:16;16.20;99.90
3406;DHT22;10008;48.682;9.016;2023-08-01T02:20:42;16.30;99.90
3406;DHT22;10008;48.682;9.016;2023-08-01T02:23:08;16.30;99.90
3406;DHT22;10008;48.682;9.016;2023-08-01T02:25:39;16.30;99.90
3406;DHT22;10008;48.682;9.016;2023-08-01T02:28:05;16.30;99.90
3406;DHT22;10008;48.682;9.016;2023-08-01T02:30:35;16.30;99.90
3406;DHT22;10008;48.682;9.016;2023-08-01T02:33:00;16.40;99.90
3406;DHT22;10008;48.682;9.016;2023-08-01T02:35:26;16.40;99.90
3406;DHT22;10008;48.682;9.016;2023-08-01T02:37:54;16.40;99.90
3406;DHT22;10008;48.682;9.016;2023-08-01T02:40:20;16.50;99.90
3406;DHT22;10008;48.682;9.016;2023-08-01T02:42:46;16.50;99.90
3406;DHT22;10008;48.682;9.016;2023-08-01T02:45:12;16.50;99.90
3406;DHT22;10008;48.682;9.016;2023-08-01T02:47:37;16.50;99.90
3406;DHT22;10008;48.682;9.016;2023-08-01T02:50:04;16.60;99.90
3406;DHT22;10008;48.682;9.016;2023-08-01T02:52:30;16.60;99.90
3406;DHT22;10008;48.682;9.016;2023-08-01T02:54:55;16.70;99.90
3406;DHT22;10008;48.682;9.016;2023-08-01T02:57:21;16.70;99.90
3406;DHT22;10008;48.682;9.016;2023-08-01T02:59:47;16.80;99.90
3406;DHT22;10008;48.682;9.016;2023-08-01T03:02:13;16.90;99.90
3406;DHT22;10008;48.682;9.016;2023-08-01T03:04:38;17.00;99.90
3406;DHT22;10008;48.682;9.016;2023-08-01T03:07:04;17.10;99.90
3406;DHT22;10008;48.682;9.016;2023-08-01T03:09:31;17.10;99.90
3406;DHT22;10008;48.682;9.016;2023-08-01T03:11:57;17.20;99.90
3406;DHT22;10008;48.682;9.016;2023-08-01T03:14:23;17.30;99.90
3406;DHT22;10008;48.682;9.016;2023-08-01T03:16:48;17.30;99.90
3406;DHT22;10008;48.682;9.016;2023-08-01T03:19:15;17.40;99.90
3406;DHT22;10008;48.682;9.016;2023-08-01T03:21:41;17.50;99.90
3406;DHT22;10008;48.682;9.016;2023-08-01T03:24:06;17.50;99.90
3406;DHT22;10008;48.682;9.016;2023-08-01T03:26:37;17.50;99.90
3406;DHT22;10008;48.682;9.016;2023-08-01T03:29:03;17.50;99.90
3406;DHT22;10008;48.682;9.016;2023-08-01T03:31:29;17.60;99.90
3406;DHT22;10008;48.682;9.016;2023-08-01T03:33:55;17.60;99.90
3406;DHT22;10008;48.682;9.016;2023-08-01T03:36:20;17.60;99.90
3406;DHT22;10008;48.682;9.016;2023-08-01T03:38:46;17.60;99.90
3406;DHT22;10008;48.682;9.016;2023-08-01T03:41:12;17.60;99.90
3406;DHT22;10008;48.682;9.016;2023-08-01T03:43:39;17.70;99.90
3406;DHT22;10008;48.682;9.016;2023-08-01T03:46:05;17.60;99.90
3406;DHT22;10008;48.682;9.016;2023-08-01T03:48:31;17.60;99.90
3406;DHT22;10008;48.682;9.016;2023-08-01T03:50:56;17.60;99.90
3406;DHT22;10008;48.682;9.016;2023-08-01T03:53:22;17.60;99.90
3406;DHT22;10008;48.682;9.016;2023-08-01T03:55:48;17.60;99.90
3406;DHT22;10008;48.682;9.016;2023-08-01T03:58:14;17.60;99.90
3406;DHT22;10008;48.682;9.016;2023-08-01T04:00:40;17.60;99.90
3406;DHT22;10008;48.682;9.016;2023-08-01T04:03:06;17.60;99.90
3406;DHT22;10008;48.682;9.016;2023-08-01T04:05:31;17.60;99.90
3406;DHT22;10008;48.682;9.016;2023-08-01T04:07:57;17.50;99.90
3406;DHT22;10008;48.682;9.016;2023-08-01T04:10:23;17.50;99.90
3406;DHT22;10008;48.682;9.016;2023-08-01T04:12:49;17.50;99.90
3406;DHT22;10008;48.682;9.016;2023-08-01T04:15:15;17.50;99.90
3406;DHT22;10008;48.682;9.016;2023-08-01T04:17:41;17.50;99.90
3406;DHT22;10008;48.682;9.016;2023-08-01T04:20:07;17.50;99.90
3406;DHT22;10008;48.682;9.016;2023-08-01T04:22:33;17.40;99.90
3406;DHT22;10008;48.682;9.016;2023-08-01T04:25:00;17.40;99.90
3406;DHT22;10008;48.682;9.016;2023-08-01T04:27:26;17.40;99.90
3406;DHT22;10008;48.682;9.016;2023-08-01T04:29:52;17.40;99.90
3406;DHT22;10008;48.682;9.016;2023-08-01T04:32:18;17.40;99.90
3406;DHT22;10008;48.682;9.016;2023-08-01T04:34:44;17.40;99.90
3406;DHT22;10008;48.682;9.016;2023-08-01T04:37:09;17.40;99.90
3406;DHT22;10008;48.682;9.016;2023-08-01T04:39:36;17.40;99.90
3406;DHT22;10008;48.682;9.016;2023-08-01T04:42:02;17.30;99.90
3406;DHT22;10008;48.682;9.016;2023-08-01T04:44:28;17.30;99.90
3406;DHT22;10008;48.682;9.016;2023-08-01T04:46:55;17.30;99.90
3406;DHT22;10008;48.682;9.016;2023-08-01T04:49:20;17.40;99.90
3406;DHT22;10008;48.682;9.016;2023-08-01T04:51:48;17.40;99.90
3406;DHT22;10008;48.682;9.016;2023-08-01T04:54:14;17.40;99.90
3406;DHT22;10008;48.682;9.016;2023-08-01T04:56:40;17.40;99.90
3406;DHT22;10008;48.682;9.016;2023-08-01T04:59:05;17.50;99.90
3406;DHT22;10008;48.682;9.016;2023-08-01T05:01:31;17.50;99.90
3406;DHT22;10008;48.682;9.016;2023-08-01T05:03:57;17.50;99.90
3406;DHT22;10008;48.682;9.016;2023-08-01T05:06:24;17.50;99.90
3406;DHT22;10008;48.682;9.016;2023-08-01T05:08:50;17.50;99.90
3406;DHT22;10008;48.682;9.016;2023-08-01T05:11:16;17.50;99.90
3406;DHT22;10008;48.682;9.016;2023-08-01T05:13:41;17.50;99.90
3406;DHT22;10008;48.682;9.016;2023-08-01T05:16:07;17.60;99.90
3406;DHT22;10008;48.682;9.016;2023-08-01T05:18:33;17.50;99.90
3406;DHT22;10008;48.682;9.016;2023-08-01T05:20:58;17.60;99.90
3406;DHT22;10008;48.682;9.016;2023-08-01T05:23:24;17.50;99.90
3406;DHT22;10008;48.682;9.016;2023-08-01T05:25:50;17.50;99.90
3406;DHT22;10008;48.682;9.016;2023-08-01T05:28:15;17.60;99.90
3406;DHT22;10008;48.682;9.016;2023-08-01T05:30:41;17.60;99.90
3406;DHT22;10008;48.682;9.016;2023-08-01T05:33:07;17.70;99.90
3406;DHT22;10008;48.682;9.016;2023-08-01T05:35:32;17.70;99.90
3406;DHT22;10008;48.682;9.016;2023-08-01T05:37:58;17.70;99.90
3406;DHT22;10008;48.682;9.016;2023-08-01T05:40:25;17.70;99.90
3406;DHT22;10008;48.682;9.016;2023-08-01T05:42:51;17.70;99.90
3406;DHT22;10008;48.682;9.016;2023-08-01T05:45:16;17.80;99.90
3406;DHT22;10008;48.682;9.016;2023-08-01T05:47:42;17.70;99.90
3406;DHT22;10008;48.682;9.016;2023-08-01T05:50:08;17.80;99.90
3406;DHT22;10008;48.682;9.016;2023-08-01T05:52:34;17.80;99.90
3406;DHT22;10008;48.682;9.016;2023-08-01T05:55:00;17.80;99.90
3406;DHT22;10008;48.682;9.016;2023-08-01T05:57:26;17.80;99.90
3406;DHT22;10008;48.682;9.016;2023-08-01T05:59:52;17.80;99.90
3406;DHT22;10008;48.682;9.016;2023-08-01T06:02:17;17.80;99.90
3406;DHT22;10008;48.682;9.016;2023-08-01T06:04:43;17.80;99.90
3406;DHT22;10008;48.682;9.016;2023-08-01T06:07:09;18.20;99.90
3406;DHT22;10008;48.682;9.016;2023-08-01T06:09:34;17.80;99.90
3406;DHT22;10008;48.682;9.016;2023-08-01T06:12:00;17.80;99.90
3406;DHT22;10008;48.682;9.016;2023-08-01T06:14:26;17.70;99.90
3406;DHT22;10008;48.682;9.016;2023-08-01T06:16:52;17.60;99.90
3406;DHT22;10008;48.682;9.016;2023-08-01T06:19:17;17.70;99.90
3406;DHT22;10008;48.682;9.016;2023-08-01T06:21:43;17.70;99.90
3406;DHT22;10008;48.682;9.016;2023-08-01T06:24:09;17.70;99.90
3406;DHT22;10008;48.682;9.016;2023-08-01T06:26:35;17.70;99.90
3406;DHT22;10008;48.682;9.016;2023-08-01T06:29:01;17.80;99.90
3406;DHT22;10008;48.682;9.016;2023-08-01T06:31:27;17.80;99.90
3406;DHT22;10008;48.682;9.016;2023-08-01T06:33:53;17.70;99.90
3406;DHT22;10008;48.682;9.016;2023-08-01T06:36:18;17.60;99.90
3406;DHT22;10008;48.682;9.016;2023-08-01T06:38:44;17.50;99.90
3406;DHT22;10008;48.682;9.016;2023-08-01T06:41:10;17.50;99.90
3406;DHT22;10008;48.682;9.016;2023-08-01T06:43:36;17.50;99.90
3406;DHT22;10008;48.682;9.016;2023-08-01T06:46:04;17.50;99.90
3406;DHT22;10008;48.682;9.016;2023-08-01T06:48:30;17.40;99.90
3406;DHT22;10008;48.682;9.016;2023-08-01T06:50:56;17.40;99.90
3406;DHT22;10008;48.682;9.016;2023-08-01T06:53:22;17.40;99.90
3406;DHT22;10008;48.682;9.016;2023-08-01T06:55:48;17.40;99.90
3406;DHT22;10008;48.682;9.016;2023-08-01T06:58:13;17.50;99.90
3406;DHT22;10008;48.682;9.016;2023-08-01T07:00:39;17.50;99.90
3406;DHT22;10008;48.682;9.016;2023-08-01T07:03:05;17.60;99.90
3406;DHT22;10008;48.682;9.016;2023-08-01T07:05:30;17.70;99.90
3406;DHT22;10008;48.682;9.016;2023-08-01T07:07:56;17.60;99.90
3406;DHT22;10008;48.682;9.016;2023-08-01T07:10:23;17.60;99.90
3406;DHT22;10008;48.682;9.016;2023-08-01T07:12:49;17.70;99.90
3406;DHT22;10008;48.682;9.016;2023-08-01T07:15:15;17.70;99.90
3406;DHT22;10008;48.682;9.016;2023-08-01T07:17:40;17.50;99.90
3406;DHT22;10008;48.682;9.016;2023-08-01T07:20:06;17.20;99.90
3406;DHT22;10008;48.682;9.016;2023-08-01T07:22:32;17.00;99.90
3406;DHT22;10008;48.682;9.016;2023-08-01T07:24:58;16.90;99.90
3406;DHT22;10008;48.682;9.016;2023-08-01T07:27:23;16.80;99.90
3406;DHT22;10008;48.682;9.016;2023-08-01T07:29:49;16.70;99.90
3406;DHT22;10008;48.682;9.016;2023-08-01T07:32:15;16.70;99.90
3406;DHT22;10008;48.682;9.016;2023-08-01T07:34:41;16.70;99.90
3406;DHT22;10008;48.682;9.016;2023-08-01T07:37:06;16.70;99.90
3406;DHT22;10008;48.682;9.016;2023-08-01T07:39:32;16.70;99.90
3406;DHT22;10008;48.682;9.016;2023-08-01T07:42:00;16.60;99.90
3406;DHT22;10008;48.682;9.016;2023-08-01T07:44:26;16.60;99.90
3406;DHT22;10008;48.682;9.016;2023-08-01T07:46:51;16.50;99.90
3406;DHT22;10008;48.682;9.016;2023-08-01T07:49:17;16.30;99.90
3406;DHT22;10008;48.682;9.016;2023-08-01T07:51:43;16.10;99.90
3406;DHT22;10008;48.682;9.016;2023-08-01T07:54:10;16.10;99.90
3406;DHT22;10008;48.682;9.016;2023-08-01T07:56:36;16.00;99.90
3406;DHT22;10008;48.682;9.016;2023-08-01T07:59:01;16.00;99.90
3406;DHT22;10008;48.682;9.016;2023-08-01T08:01:27;15.90;99.90
3406;DHT22;10008;48.682;9.016;2023-08-01T08:03:53;15.90;99.90
3406;DHT22;10008;48.682;9.016;2023-08-01T08:06:18;15.80;99.90
3406;DHT22;10008;48.682;9.016;2023-08-01T08:08:46;15.80;99.90
3406;DHT22;10008;48.682;9.016;2023-08-01T08:11:12;15.80;99.90
3406;DHT22;10008;48.682;9.016;2023-08-01T08:13:38;15.70;99.90
3406;DHT22;10008;48.682;9.016;2023-08-01T08:16:05;15.70;99.90
3406;DHT22;10008;48.682;9.016;2023-08-01T08:18:31;15.70;99.90
3406;DHT22;10008;48.682;9.016;2023-08-01T08:20:57;15.80;99.90
3406;DHT22;10008;48.682;9.016;2023-08-01T08:23:22;15.80;99.90
3406;DHT22;10008;48.682;9.016;2023-08-01T08:25:48;15.80;99.90
3406;DHT22;10008;48.682;9.016;2023-08-01T08:28:16;15.90;99.90
3406;DHT22;10008;48.682;9.016;2023-08-01T08:30:41;15.90;99.90
3406;DHT22;10008;48.682;9.016;2023-08-01T08:33:07;15.90;99.90
3406;DHT22;10008;48.682;9.016;2023-08-01T08:35:33;16.00;99.90
3406;DHT22;10008;48.682;9.016;2023-08-01T08:38:03;16.10;99.90
3406;DHT22;10008;48.682;9.016;2023-08-01T08:40:32;16.30;99.90
3406;DHT22;10008;48.682;9.016;2023-08-01T08:43:01;16.40;99.90
3406;DHT22;10008;48.682;9.016;2023-08-01T08:45:29;16.50;99.90
3406;DHT22;10008;48.682;9.016;2023-08-01T08:48:00;16.40;99.90
3406;DHT22;10008;48.682;9.016;2023-08-01T08:50:27;16.30;99.90
3406;DHT22;10008;48.682;9.016;2023-08-01T08:52:54;16.30;99.90
3406;DHT22;10008;48.682;9.016;2023-08-01T08:55:20;16.30;99.90
3406;DHT22;10008;48.682;9.016;2023-08-01T08:57:50;16.30;99.90
3406;DHT22;10008;48.682;9.016;2023-08-01T09:00:18;16.30;99.90
3406;DHT22;10008;48.682;9.016;2023-08-01T09:02:45;16.40;99.90
3406;DHT22;10008;48.682;9.016;2023-08-01T09:05:11;16.50;99.90
3406;DHT22;10008;48.682;9.016;2023-08-01T09:07:41;16.50;99.90
3406;DHT22;10008;48.682;9.016;2023-08-01T09:10:08;16.50;99.90
3406;DHT22;10008;48.682;9.016;2023-08-01T09:12:36;16.60;99.90
3406;DHT22;10008;48.682;9.016;2023-08-01T09:15:02;16.60;99.90
3406;DHT22;10008;48.682;9.016;2023-08-01T09:17:28;16.60;99.90
3406;DHT22;10008;48.682;9.016;2023-08-01T09:20:14;15.80;99.90
3406;DHT22;10008;48.682;9.016;2023-08-01T09:22:46;16.60;99.90
3406;DHT22;10008;48.682;9.016;2023-08-01T09:25:13;16.60;99.90
3406;DHT22;10008;48.682;9.016;2023-08-01T09:27:39;16.60;99.90
3406;DHT22;10008;48.682;9.016;2023-08-01T09:30:10;16.60;99.90
3406;DHT22;10008;48.682;9.016;2023-08-01T09:32:39;16.70;99.90
3406;DHT22;10008;48.682;9.016;2023-08-01T09:35:05;16.70;99.90
3406;DHT22;10008;48.682;9.016;2023-08-01T09:37:41;16.60;99.90
3406;DHT22;10008;48.682;9.016;2023-08-01T09:40:09;16.60;99.90
3406;DHT22;10008;48.682;9.016;2023-08-01T09:42:39;16.70;99.90
3406;DHT22;10008;48.682;9.016;2023-08-01T09:45:17;16.80;99.90
3406;DHT22;10008;48.682;9.016;2023-08-01T09:47:43;16.90;99.90
3406;DHT22;10008;48.682;9.016;2023-08-01T09:50:10;16.90;99.90
3406;DHT22;10008;48.682;9.016;2023-08-01T09:52:37;16.90;99.90
3406;DHT22;10008;48.682;9.016;2023-08-01T09:55:03;16.90;99.90
3406;DHT22;10008;48.682;9.016;2023-08-01T09:57:30;16.90;99.90
3406;DHT22;10008;48.682;9.016;2023-08-01T09:59:57;17.10;99.90
3406;DHT22;10008;48.682;9.016;2023-08-01T10:02:25;17.20;99.90
3406;DHT22;10008;48.682;9.016;2023-08-01T10:04:57;17.20;99.90
3406;DHT22;10008;48.682;9.016;2023-08-01T10:07:25;17.10;99.90
3406;DHT22;10008;48.682;9.016;2023-08-01T10:09:54;17.10;99.90
3406;DHT22;10008;48.682;9.016;2023-08-01T10:12:22;17.20;99.90
3406;DHT22;10008;48.682;9.016;2023-08-01T10:14:52;17.20;99.90
3406;DHT22;10008;48.682;9.016;2023-08-01T10:17:18;17.20;99.90
3406;DHT22;10008;48.682;9.016;2023-08-01T10:19:44;17.20;99.90
3406;DHT22;10008;48.682;9.016;2023-08-01T10:22:12;17.20;99.90
3406;DHT22;10008;48.682;9.016;2023-08-01T10:24:39;17.20;99.90
3406;DHT22;10008;48.682;9.016;2023-08-01T10:27:18;17.30;99.90
3406;DHT22;10008;48.682;9.016;2023-08-01T10:29:44;17.50;99.90
3406;DHT22;10008;48.682;9.016;2023-08-01T10:32:10;17.90;99.90
3406;DHT22;10008;48.682;9.016;2023-08-01T10:34:36;17.90;99.90
3406;DHT22;10008;48.682;9.016;2023-08-01T10:37:02;17.90;99.90
3406;DHT22;10008;48.682;9.016;2023-08-01T10:39:29;18.00;99.90
3406;DHT22;10008;48.682;9.016;2023-08-01T10:42:02;18.20;99.90
3406;DHT22;10008;48.682;9.016;2023-08-01T10:44:29;18.40;99.90
3406;DHT22;10008;48.682;9.016;2023-08-01T10:46:58;19.10;99.90
3406;DHT22;10008;48.682;9.016;2023-08-01T10:49:37;20.60;99.90
3406;DHT22;10008;48.682;9.016;2023-08-01T10:52:24;21.40;99.90
3406;DHT22;10008;48.682;9.016;2023-08-01T10:55:18;21.40;99.90
3406;DHT22;10008;48.682;9.016;2023-08-01T10:57:48;20.60;99.90
3406;DHT22;10008;48.682;9.016;2023-08-01T11:00:18;20.10;99.90
3406;DHT22;10008;48.682;9.016;2023-08-01T11:02:50;19.80;99.90
3406;DHT22;10008;48.682;9.016;2023-08-01T11:05:17;19.50;99.90
3406;DHT22;10008;48.682;9.016;2023-08-01T11:07:53;19.90;99.90
3406;DHT22;10008;48.682;9.016;2023-08-01T11:10:20;20.90;99.90
3406;DHT22;10008;48.682;9.016;2023-08-01T11:12:46;21.60;99.90
3406;DHT22;10008;48.682;9.016;2023-08-01T11:15:13;21.50;99.90
3406;DHT22;10008;48.682;9.016;2023-08-01T11:17:41;21.70;99.90
3406;DHT22;10008;48.682;9.016;2023-08-01T11:20:08;22.50;99.90
3406;DHT22;10008;48.682;9.016;2023-08-01T11:22:35;23.90;99.90
3406;DHT22;10008;48.682;9.016;2023-08-01T11:25:02;23.90;99.90
3406;DHT22;10008;48.682;9.016;2023-08-01T11:27:28;23.80;99.90
3406;DHT22;10008;48.682;9.016;2023-08-01T11:29:55;24.20;99.30
3406;DHT22;10008;48.682;9.016;2023-08-01T11:32:21;23.80;99.90
3406;DHT22;10008;48.682;9.016;2023-08-01T11:34:47;24.50;99.90
3406;DHT22;10008;48.682;9.016;2023-08-01T11:37:15;24.60;98.60
3406;DHT22;10008;48.682;9.016;2023-08-01T11:39:41;24.10;98.90
3406;DHT22;10008;48.682;9.016;2023-08-01T11:42:07;23.70;99.50
3406;DHT22;10008;48.682;9.016;2023-08-01T11:44:38;24.00;99.90
3406;DHT22;10008;48.682;9.016;2023-08-01T11:47:14;24.70;98.70
3406;DHT22;10008;48.682;9.016;2023-08-01T11:49:49;25.00;98.00
3406;DHT22;10008;48.682;9.016;2023-08-01T11:52:25;24.70;96.90
3406;DHT22;10008;48.682;9.016;2023-08-01T11:54:51;24.30;98.50
3406;DHT22;10008;48.682;9.016;2023-08-01T11:57:17;24.40;99.00
3406;DHT22;10008;48.682;9.016;2023-08-01T11:59:50;24.30;97.00
3406;DHT22;10008;48.682;9.016;2023-08-01T12:02:23;24.20;98.50
3406;DHT22;10008;48.682;9.016;2023-08-01T12:04:49;23.60;97.90
3406;DHT22;10008;48.682;9.016;2023-08-01T12:07:15;22.90;97.60
3406;DHT22;10008;48.682;9.016;2023-08-01T12:09:41;23.10;99.90
3406;DHT22;10008;48.682;9.016;2023-08-01T12:12:08;24.00;97.20
3406;DHT22;10008;48.682;9.016;2023-08-01T12:14:40;24.60;98.40
3406;DHT22;10008;48.682;9.016;2023-08-01T12:17:06;24.30;96.40
3406;DHT22;10008;48.682;9.016;2023-08-01T12:19:32;24.80;95.40
3406;DHT22;10008;48.682;9.016;2023-08-01T12:21:59;25.20;95.40
3406;DHT22;10008;48.682;9.016;2023-08-01T12:24:25;24.50;94.50
3406;DHT22;10008;48.682;9.016;2023-08-01T12:26:51;24.60;96.20
3406;DHT22;10008;48.682;9.016;2023-08-01T12:29:16;24.10;94.10
3406;DHT22;10008;48.682;9.016;2023-08-01T12:31:42;23.60;95.10
3406;DHT22;10008;48.682;9.016;2023-08-01T12:34:08;23.70;93.00
3406;DHT22;10008;48.682;9.016;2023-08-01T12:36:34;24.10;93.40
3406;DHT22;10008;48.682;9.016;2023-08-01T12:39:00;23.80;93.30
3406;DHT22;10008;48.682;9.016;2023-08-01T12:41:25;23.90;94.40
3406;DHT22;10008;48.682;9.016;2023-08-01T12:43:51;24.20;94.00
3406;DHT22;10008;48.682;9.016;2023-08-01T12:46:17;24.40;93.10
3406;DHT22;10008;48.682;9.016;2023-08-01T12:48:43;24.50;93.90
3406;DHT22;10008;48.682;9.016;2023-08-01T12:51:09;24.50;94.80
3406;DHT22;10008;48.682;9.016;2023-08-01T12:53:35;24.80;93.00
3406;DHT22;10008;48.682;9.016;2023-08-01T12:56:06;24.80;93.60
3406;DHT22;10008;48.682;9.016;2023-08-01T12:58:32;24.40;91.90
3406;DHT22;10008;48.682;9.016;2023-08-01T13:00:58;24.60;92.40
3406;DHT22;10008;48.682;9.016;2023-08-01T13:03:24;24.80;93.20
3406;DHT22;10008;48.682;9.016;2023-08-01T13:05:49;24.60;93.60
3406;DHT22;10008;48.682;9.016;2023-08-01T13:08:16;24.00;92.70
3406;DHT22;10008;48.682;9.016;2023-08-01T13:10:41;23.70;93.20
3406;DHT22;10008;48.682;9.016;2023-08-01T13:13:07;23.50;91.90
3406;DHT22;10008;48.682;9.016;2023-08-01T13:15:33;23.70;93.30
3406;DHT22;10008;48.682;9.016;2023-08-01T13:17:59;23.30;93.80
3406;DHT22;10008;48.682;9.016;2023-08-01T13:20:24;23.20;94.60
3406;DHT22;10008;48.682;9.016;2023-08-01T13:22:51;23.70;94.70
3406;DHT22;10008;48.682;9.016;2023-08-01T13:25:18;24.10;91.00
3406;DHT22;10008;48.682;9.016;2023-08-01T13:27:44;24.30;91.70
3406;DHT22;10008;48.682;9.016;2023-08-01T13:30:10;23.70;92.30
3406;DHT22;10008;48.682;9.016;2023-08-01T13:32:40;23.60;93.20
3406;DHT22;10008;48.682;9.016;2023-08-01T13:35:06;23.70;93.60
3406;DHT22;10008;48.682;9.016;2023-08-01T13:37:31;24.00;91.00
3406;DHT22;10008;48.682;9.016;2023-08-01T13:39:58;24.30;89.60
3406;DHT22;10008;48.682;9.016;2023-08-01T13:42:23;24.40;92.30
3406;DHT22;10008;48.682;9.016;2023-08-01T13:44:49;23.70;92.30
3406;DHT22;10008;48.682;9.016;2023-08-01T13:47:15;23.50;91.30
3406;DHT22;10008;48.682;9.016;2023-08-01T13:49:41;23.40;93.10
3406;DHT22;10008;48.682;9.016;2023-08-01T13:52:07;23.50;94.30
3406;DHT22;10008;48.682;9.016;2023-08-01T13:54:32;23.00;91.90
3406;DHT22;10008;48.682;9.016;2023-08-01T13:56:58;23.30;93.40
3406;DHT22;10008;48.682;9.016;2023-08-01T13:59:24;23.30;93.40
3406;DHT22;10008;48.682;9.016;2023-08-01T14:01:50;23.90;93.40
3406;DHT22;10008;48.682;9.016;2023-08-01T14:04:15;23.40;93.80
3406;DHT22;10008;48.682;9.016;2023-08-01T14:06:42;23.50;94.00
3406;DHT22;10008;48.682;9.016;2023-08-01T14:09:08;24.00;91.00
3406;DHT22;10008;48.682;9.016;2023-08-01T14:11:35;23.80;89.30
3406;DHT22;10008;48.682;9.016;2023-08-01T14:14:01;23.30;91.80
3406;DHT22;10008;48.682;9.016;2023-08-01T14:16:27;23.00;93.50
3406;DHT22;10008;48.682;9.016;2023-08-01T14:18:53;22.80;91.80
3406;DHT22;10008;48.682;9.016;2023-08-01T14:21:18;22.90;93.90
3406;DHT22;10008;48.682;9.016;2023-08-01T14:23:44;22.90;92.70
3406;DHT22;10008;48.682;9.016;2023-08-01T14:26:10;22.60;91.40
3406;DHT22;10008;48.682;9.016;2023-08-01T14:28:36;22.40;91.90
3406;DHT22;10008;48.682;9.016;2023-08-01T14:31:03;22.30;94.60
3406;DHT22;10008;48.682;9.016;2023-08-01T14:33:29;22.20;94.40
3406;DHT22;10008;48.682;9.016;2023-08-01T14:35:55;21.90;93.90
3406;DHT22;10008;48.682;9.016;2023-08-01T14:38:21;22.30;93.70
3406;DHT22;10008;48.682;9.016;2023-08-01T14:40:46;22.60;93.30
3406;DHT22;10008;48.682;9.016;2023-08-01T14:43:12;22.70;94.10
3406;DHT22;10008;48.682;9.016;2023-08-01T14:45:40;22.60;94.40
3406;DHT22;10008;48.682;9.016;2023-08-01T14:48:07;22.60;92.70
3406;DHT22;10008;48.682;9.016;2023-08-01T14:50:33;22.60;94.20
3406;DHT22;10008;48.682;9.016;2023-08-01T14:53:00;22.50;92.30
3406;DHT22;10008;48.682;9.016;2023-08-01T14:55:27;22.50;92.70
3406;DHT22;10008;48.682;9.016;2023-08-01T14:57:52;22.50;92.50
3406;DHT22;10008;48.682;9.016;2023-08-01T15:00:18;22.50;91.60
3406;DHT22;10008;48.682;9.016;2023-08-01T15:02:44;22.60;92.00
3406;DHT22;10008;48.682;9.016;2023-08-01T15:05:11;22.80;92.40
3406;DHT22;10008;48.682;9.016;2023-08-01T15:07:37;22.80;92.40
3406;DHT22;10008;48.682;9.016;2023-08-01T15:10:03;22.70;94.90
3406;DHT22;10008;48.682;9.016;2023-08-01T15:12:29;22.70;93.90
3406;DHT22;10008;48.682;9.016;2023-08-01T15:14:55;22.20;94.10
3406;DHT22;10008;48.682;9.016;2023-08-01T15:17:22;22.10;93.70
3406;DHT22;10008;48.682;9.016;2023-08-01T15:19:48;22.10;94.30
3406;DHT22;10008;48.682;9.016;2023-08-01T15:22:15;21.90;95.20
3406;DHT22;10008;48.682;9.016;2023-08-01T15:24:41;21.60;95.50
3406;DHT22;10008;48.682;9.016;2023-08-01T15:27:07;21.60;95.10
3406;DHT22;10008;48.682;9.016;2023-08-01T15:29:33;21.70;95.90
3406;DHT22;10008;48.682;9.016;2023-08-01T15:31:58;21.90;94.70
3406;DHT22;10008;48.682;9.016;2023-08-01T15:34:24;22.00;94.90
3406;DHT22;10008;48.682;9.016;2023-08-01T15:36:50;22.00;95.30
3406;DHT22;10008;48.682;9.016;2023-08-01T15:39:16;21.80;93.10
3406;DHT22;10008;48.682;9.016;2023-08-01T15:41:42;21.70;94.40